sensor_id;sensor_type;location;lat;lon;timestamp;pressure;altitude;pressure_sealevel;temperature;humidity
73817;BME280;62146;53.232;-1.304;2022-12-18T00:01:21;101019.53;;;0.88;100.00
73817;BME280;62146;53.232;-1.304;2022-12-18T00:03:48;101016.25;;;0.86;100.00
73817;BME280;62146;53.232;-1.304;2022-12-18T00:06:16;101020.00;;;0.83;100.00
73817;BME280;62146;53.232;-1.304;2022-12-18T00:08:44;101021.47;;;0.86;100.00
73817;BME280;62146;53.232;-1.304;2022-12-18T00:11:16;101010.41;;;0.84;100.00
73817;BME280;62146;53.232;-1.304;2022-12-18T00:13:43;101006.13;;;0.83;100.00
73817;BME280;62146;53.232;-1.304;2022-12-18T00:16:12;100995.88;;;0.81;100.00
73817;BME280;62146;53.232;-1.304;2022-12-18T00:18:39;101001.91;;;0.82;100.00
73817;BME280;62146;53.232;-1.304;2022-12-18T00:21:08;101005.50;;;0.81;100.00
73817;BME280;62146;53.232;-1.304;2022-12-18T00:23:36;101008.91;;;0.81;100.00
73817;BME280;62146;53.232;-1.304;2022-12-18T00:26:12;101015.13;;;0.80;100.00
73817;BME280;62146;53.232;-1.304;2022-12-18T00:28:38;101019.03;;;0.77;100.00
73817;BME280;62146;53.232;-1.304;2022-12-18T00:31:10;101013.81;;;0.77;100.00
73817;BME280;62146;53.232;-1.304;2022-12-18T00:33:38;101012.16;;;0.76;100.00
73817;BME280;62146;53.232;-1.304;2022-12-18T00:36:27;101021.78;;;0.75;100.00
73817;BME280;62146;53.232;-1.304;2022-12-18T00:38:54;101018.53;;;0.73;100.00
73817;BME280;62146;53.232;-1.304;2022-12-18T00:41:22;101020.47;;;0.71;100.00
73817;BME280;62146;53.232;-1.304;2022-12-18T00:44:10;101018.84;;;0.70;100.00
73817;BME280;62146;53.232;-1.304;2022-12-18T00:46:37;101016.41;;;0.69;100.00
73817;BME280;62146;53.232;-1.304;2022-12-18T00:49:04;101009.53;;;0.68;100.00
73817;BME280;62146;53.232;-1.304;2022-12-18T00:51:31;101004.81;;;0.63;100.00
73817;BME280;62146;53.232;-1.304;2022-12-18T00:53:58;101002.22;;;0.63;100.00
73817;BME280;62146;53.232;-1.304;2022-12-18T00:56:25;101008.56;;;0.61;100.00
73817;BME280;62146;53.232;-1.304;2022-12-18T00:58:51;101004.31;;;0.60;100.00
73817;BME280;62146;53.232;-1.304;2022-12-18T01:01:18;101012.63;;;0.55;100.00
73817;BME280;62146;53.232;-1.304;2022-12-18T01:03:46;101019.47;;;0.56;100.00
73817;BME280;62146;53.232;-1.304;2022-12-18T01:06:14;101013.63;;;0.54;100.00
73817;BME280;62146;53.232;-1.304;2022-12-18T01:08:41;101017.03;;;0.55;100.00
73817;BME280;62146;53.232;-1.304;2022-12-18T01:11:10;101009.84;;;0.49;100.00
73817;BME280;62146;53.232;-1.304;2022-12-18T01:13:38;101010.34;;;0.52;100.00
73817;BME280;62146;53.232;-1.304;2022-12-18T01:16:06;101010.69;;;0.50;100.00
73817;BME280;62146;53.232;-1.304;2022-12-18T01:18:33;101006.09;;;0.44;100.00
73817;BME280;62146;53.232;-1.304;2022-12-18T01:20:59;101001.06;;;0.42;100.00
73817;BME280;62146;53.232;-1.304;2022-12-18T01:23:26;100993.69;;;0.38;100.00
73817;BME280;62146;53.232;-1.304;2022-12-18T01:25:53;100997.28;;;0.37;100.00
73817;BME280;62146;53.232;-1.304;2022-12-18T01:28:19;100988.16;;;0.33;100.00
73817;BME280;62146;53.232;-1.304;2022-12-18T01:30:46;100988.81;;;0.35;100.00
73817;BME280;62146;53.232;-1.304;2022-12-18T01:33:12;100979.84;;;0.29;100.00
73817;BME280;62146;53.232;-1.304;2022-12-18T01:35:42;100974.94;;;0.26;100.00
73817;BME280;62146;53.232;-1.304;2022-12-18T01:38:09;100978.69;;;0.24;100.00
73817;BME280;62146;53.232;-1.304;2022-12-18T01:40:36;100978.03;;;0.22;100.00
73817;BME280;62146;53.232;-1.304;2022-12-18T01:43:02;100982.25;;;0.15;100.00
73817;BME280;62146;53.232;-1.304;2022-12-18T01:45:31;100989.59;;;0.12;100.00
73817;BME280;62146;53.232;-1.304;2022-12-18T01:48:01;100986.50;;;0.08;100.00
73817;BME280;62146;53.232;-1.304;2022-12-18T01:50:33;100989.91;;;0.09;100.00
73817;BME280;62146;53.232;-1.304;2022-12-18T01:53:03;100995.59;;;0.04;100.00
73817;BME280;62146;53.232;-1.304;2022-12-18T01:55:34;100995.75;;;0.03;100.00
73817;BME280;62146;53.232;-1.304;2022-12-18T01:58:02;101000.63;;;-0.02;100.00
73817;BME280;62146;53.232;-1.304;2022-12-18T02:00:30;100995.06;;;-0.07;100.00
73817;BME280;62146;53.232;-1.304;2022-12-18T02:02:57;101004.00;;;-0.09;100.00
73817;BME280;62146;53.232;-1.304;2022-12-18T02:05:49;101004.19;;;-0.11;100.00
73817;BME280;62146;53.232;-1.304;2022-12-18T02:08:39;101006.13;;;-0.13;100.00
73817;BME280;62146;53.232;-1.304;2022-12-18T02:17:11;100998.94;;;-0.19;100.00
73817;BME280;62146;53.232;-1.304;2022-12-18T02:19:51;100989.63;;;-0.21;100.00
73817;BME280;62146;53.232;-1.304;2022-12-18T02:27:45;101006.25;;;-0.22;100.00
73817;BME280;62146;53.232;-1.304;2022-12-18T02:30:14;101007.19;;;-0.23;100.00
73817;BME280;62146;53.232;-1.304;2022-12-18T02:32:44;101005.75;;;-0.26;100.00
73817;BME280;62146;53.232;-1.304;2022-12-18T02:35:15;101000.03;;;-0.29;100.00
73817;BME280;62146;53.232;-1.304;2022-12-18T02:37:45;101007.16;;;-0.31;100.00
73817;BME280;62146;53.232;-1.304;2022-12-18T02:40:14;101012.38;;;-0.31;100.00
73817;BME280;62146;53.232;-1.304;2022-12-18T02:42:42;101001.66;;;-0.28;100.00
73817;BME280;62146;53.232;-1.304;2022-12-18T02:45:10;101004.56;;;-0.31;100.00
73817;BME280;62146;53.232;-1.304;2022-12-18T02:47:39;101006.53;;;-0.33;100.00
73817;BME280;62146;53.232;-1.304;2022-12-18T02:50:36;101008.16;;;-0.32;100.00
73817;BME280;62146;53.232;-1.304;2022-12-18T02:53:24;101011.06;;;-0.35;100.00
73817;BME280;62146;53.232;-1.304;2022-12-18T02:56:03;101013.03;;;-0.37;100.00
73817;BME280;62146;53.232;-1.304;2022-12-18T03:01:19;100998.81;;;-0.42;100.00
73817;BME280;62146;53.232;-1.304;2022-12-18T03:04:01;101002.91;;;-0.40;100.00
73817;BME280;62146;53.232;-1.304;2022-12-18T03:06:35;100998.34;;;-0.46;100.00
73817;BME280;62146;53.232;-1.304;2022-12-18T03:09:09;100998.34;;;-0.46;100.00
73817;BME280;62146;53.232;-1.304;2022-12-18T03:11:40;100993.25;;;-0.47;100.00
73817;BME280;62146;53.232;-1.304;2022-12-18T03:14:30;100986.91;;;-0.53;100.00
73817;BME280;62146;53.232;-1.304;2022-12-18T03:17:01;100989.97;;;-0.57;100.00
73817;BME280;62146;53.232;-1.304;2022-12-18T03:19:32;100994.03;;;-0.54;100.00
73817;BME280;62146;53.232;-1.304;2022-12-18T03:22:02;100997.91;;;-0.58;100.00
73817;BME280;62146;53.232;-1.304;2022-12-18T03:24:31;100991.56;;;-0.64;100.00
73817;BME280;62146;53.232;-1.304;2022-12-18T03:27:00;100996.91;;;-0.65;100.00
73817;BME280;62146;53.232;-1.304;2022-12-18T03:29:42;100991.69;;;-0.65;100.00
73817;BME280;62146;53.232;-1.304;2022-12-18T03:32:15;100996.56;;;-0.70;100.00
73817;BME280;62146;53.232;-1.304;2022-12-18T03:34:47;100986.66;;;-0.67;100.00
73817;BME280;62146;53.232;-1.304;2022-12-18T03:37:16;100971.19;;;-0.68;100.00
73817;BME280;62146;53.232;-1.304;2022-12-18T03:39:43;100965.66;;;-0.65;100.00
73817;BME280;62146;53.232;-1.304;2022-12-18T03:44:58;100954.94;;;-0.62;100.00
73817;BME280;62146;53.232;-1.304;2022-12-18T03:47:37;100961.94;;;-0.63;100.00
73817;BME280;62146;53.232;-1.304;2022-12-18T03:50:20;100969.16;;;-0.57;100.00
73817;BME280;62146;53.232;-1.304;2022-12-18T03:52:57;100965.56;;;-0.56;100.00
73817;BME280;62146;53.232;-1.304;2022-12-18T03:55:27;100946.66;;;-0.58;100.00
73817;BME280;62146;53.232;-1.304;2022-12-18T03:57:58;100938.72;;;-0.56;100.00
73817;BME280;62146;53.232;-1.304;2022-12-18T04:00:26;100927.81;;;-0.52;100.00
73817;BME280;62146;53.232;-1.304;2022-12-18T04:02:55;100915.94;;;-0.54;100.00
73817;BME280;62146;53.232;-1.304;2022-12-18T04:05:24;100913.50;;;-0.56;100.00
73817;BME280;62146;53.232;-1.304;2022-12-18T04:07:53;100906.03;;;-0.51;100.00
73817;BME280;62146;53.232;-1.304;2022-12-18T04:10:20;100903.41;;;-0.51;100.00
73817;BME280;62146;53.232;-1.304;2022-12-18T04:12:46;100906.03;;;-0.51;100.00
73817;BME280;62146;53.232;-1.304;2022-12-18T04:15:13;100891.06;;;-0.49;100.00
73817;BME280;62146;53.232;-1.304;2022-12-18T04:17:47;100896.09;;;-0.48;100.00
73817;BME280;62146;53.232;-1.304;2022-12-18T04:20:14;100887.31;;;-0.47;100.00
73817;BME280;62146;53.232;-1.304;2022-12-18T04:22:41;100891.56;;;-0.46;100.00
73817;BME280;62146;53.232;-1.304;2022-12-18T04:25:08;100884.56;;;-0.45;100.00
73817;BME280;62146;53.232;-1.304;2022-12-18T04:27:34;100896.78;;;-0.46;100.00
73817;BME280;62146;53.232;-1.304;2022-12-18T04:30:02;100888.97;;;-0.46;100.00
73817;BME280;62146;53.232;-1.304;2022-12-18T04:32:28;100888.13;;;-0.46;100.00
73817;BME280;62146;53.232;-1.304;2022-12-18T04:34:55;100886.50;;;-0.47;100.00
73817;BME280;62146;53.232;-1.304;2022-12-18T04:37:21;100880.31;;;-0.46;100.00
73817;BME280;62146;53.232;-1.304;2022-12-18T04:39:48;100881.28;;;-0.47;100.00
73817;BME280;62146;53.232;-1.304;2022-12-18T04:42:14;100876.91;;;-0.47;100.00
73817;BME280;62146;53.232;-1.304;2022-12-18T04:44:41;100871.69;;;-0.47;100.00
73817;BME280;62146;53.232;-1.304;2022-12-18T04:47:07;100857.03;;;-0.48;100.00
73817;BME280;62146;53.232;-1.304;2022-12-18T04:49:34;100860.47;;;-0.47;100.00
73817;BME280;62146;53.232;-1.304;2022-12-18T04:52:00;100859.34;;;-0.45;100.00
73817;BME280;62146;53.232;-1.304;2022-12-18T04:54:27;100860.97;;;-0.44;100.00
73817;BME280;62146;53.232;-1.304;2022-12-18T04:56:53;100864.56;;;-0.45;100.00
73817;BME280;62146;53.232;-1.304;2022-12-18T04:59:20;100849.75;;;-0.44;100.00
73817;BME280;62146;53.232;-1.304;2022-12-18T05:01:47;100832.16;;;-0.42;100.00
73817;BME280;62146;53.232;-1.304;2022-12-18T05:04:13;100820.13;;;-0.43;100.00
73817;BME280;62146;53.232;-1.304;2022-12-18T05:06:40;100817.38;;;-0.42;100.00
73817;BME280;62146;53.232;-1.304;2022-12-18T05:09:06;100824.19;;;-0.41;100.00
73817;BME280;62146;53.232;-1.304;2022-12-18T05:11:36;100823.03;;;-0.38;100.00
73817;BME280;62146;53.232;-1.304;2022-12-18T05:14:03;100817.53;;;-0.35;100.00
73817;BME280;62146;53.232;-1.304;2022-12-18T05:16:29;100819.97;;;-0.34;100.00
73817;BME280;62146;53.232;-1.304;2022-12-18T05:18:56;100811.19;;;-0.33;100.00
73817;BME280;62146;53.232;-1.304;2022-12-18T05:21:23;100792.63;;;-0.30;100.00
73817;BME280;62146;53.232;-1.304;2022-12-18T05:23:49;100790.53;;;-0.27;100.00
73817;BME280;62146;53.232;-1.304;2022-12-18T05:26:17;100786.94;;;-0.26;100.00
73817;BME280;62146;53.232;-1.304;2022-12-18T05:28:44;100787.91;;;-0.27;100.00
73817;BME280;62146;53.232;-1.304;2022-12-18T05:31:12;100784.97;;;-0.24;100.00
73817;BME280;62146;53.232;-1.304;2022-12-18T05:33:40;100783.03;;;-0.22;100.00
73817;BME280;62146;53.232;-1.304;2022-12-18T05:36:08;100791.47;;;-0.20;100.00
73817;BME280;62146;53.232;-1.304;2022-12-18T05:38:36;100787.25;;;-0.21;100.00
73817;BME280;62146;53.232;-1.304;2022-12-18T05:41:03;100794.75;;;-0.18;100.00
73817;BME280;62146;53.232;-1.304;2022-12-18T05:43:31;100787.75;;;-0.17;100.00
73817;BME280;62146;53.232;-1.304;2022-12-18T05:46:11;100781.88;;;-0.19;100.00
73817;BME280;62146;53.232;-1.304;2022-12-18T05:48:38;100790.84;;;-0.14;100.00
73817;BME280;62146;53.232;-1.304;2022-12-18T05:51:11;100790.84;;;-0.14;100.00
73817;BME280;62146;53.232;-1.304;2022-12-18T05:53:38;100797.69;;;-0.13;100.00
73817;BME280;62146;53.232;-1.304;2022-12-18T05:56:08;100810.56;;;-0.11;100.00
73817;BME280;62146;53.232;-1.304;2022-12-18T05:58:36;100812.81;;;-0.08;100.00
73817;BME280;62146;53.232;-1.304;2022-12-18T06:01:11;100812.81;;;-0.08;100.00
73817;BME280;62146;53.232;-1.304;2022-12-18T06:03:38;100821.44;;;-0.08;100.00
73817;BME280;62146;53.232;-1.304;2022-12-18T06:06:26;100834.16;;;-0.05;100.00
73817;BME280;62146;53.232;-1.304;2022-12-18T06:08:54;100829.13;;;-0.06;100.00
73817;BME280;62146;53.232;-1.304;2022-12-18T06:11:24;100832.38;;;-0.04;100.00
73817;BME280;62146;53.232;-1.304;2022-12-18T06:13:55;100822.75;;;-0.04;100.00
73817;BME280;62146;53.232;-1.304;2022-12-18T06:16:25;100811.19;;;-0.01;100.00
73817;BME280;62146;53.232;-1.304;2022-12-18T06:18:52;100806.00;;;-0.01;100.00
73817;BME280;62146;53.232;-1.304;2022-12-18T06:21:19;100792.97;;;-0.01;100.00
73817;BME280;62146;53.232;-1.304;2022-12-18T06:23:46;100802.06;;;0.02;100.00
73817;BME280;62146;53.232;-1.304;2022-12-18T06:26:12;100777.81;;;0.02;100.00
73817;BME280;62146;53.232;-1.304;2022-12-18T06:28:39;100786.44;;;0.02;100.00
73817;BME280;62146;53.232;-1.304;2022-12-18T06:31:07;100789.22;;;0.01;100.00
73817;BME280;62146;53.232;-1.304;2022-12-18T06:33:35;100788.41;;;0.00;100.00
73817;BME280;62146;53.232;-1.304;2022-12-18T06:36:06;100795.25;;;0.01;100.00
73817;BME280;62146;53.232;-1.304;2022-12-18T06:38:34;100801.75;;;0.05;100.00
73817;BME280;62146;53.232;-1.304;2022-12-18T06:41:06;100789.53;;;0.06;100.00
73817;BME280;62146;53.232;-1.304;2022-12-18T06:43:32;100793.94;;;0.05;100.00
73817;BME280;62146;53.232;-1.304;2022-12-18T06:46:00;100797.53;;;0.04;100.00
73817;BME280;62146;53.232;-1.304;2022-12-18T06:48:27;100809.25;;;0.08;100.00
73817;BME280;62146;53.232;-1.304;2022-12-18T06:50:54;100817.88;;;0.09;100.00
73817;BME280;62146;53.232;-1.304;2022-12-18T06:53:21;100815.09;;;0.10;100.00
73817;BME280;62146;53.232;-1.304;2022-12-18T06:55:47;100815.09;;;0.10;100.00
73817;BME280;62146;53.232;-1.304;2022-12-18T06:58:14;100808.09;;;0.11;100.00
73817;BME280;62146;53.232;-1.304;2022-12-18T07:00:41;100805.50;;;0.11;100.00
73817;BME280;62146;53.232;-1.304;2022-12-18T07:03:08;100799.16;;;0.13;100.00
73817;BME280;62146;53.232;-1.304;2022-12-18T07:05:39;100790.84;;;0.10;100.00
73817;BME280;62146;53.232;-1.304;2022-12-18T07:08:06;100782.03;;;0.11;100.00
73817;BME280;62146;53.232;-1.304;2022-12-18T07:10:33;100774.22;;;0.11;100.00
73817;BME280;62146;53.232;-1.304;2022-12-18T07:13:00;100776.69;;;0.12;100.00
73817;BME280;62146;53.232;-1.304;2022-12-18T07:15:26;100776.69;;;0.12;100.00
73817;BME280;62146;53.232;-1.304;2022-12-18T07:17:53;100772.41;;;0.11;100.00
73817;BME280;62146;53.232;-1.304;2022-12-18T07:20:20;100765.44;;;0.12;100.00
73817;BME280;62146;53.232;-1.304;2022-12-18T07:22:47;100764.59;;;0.11;100.00
73817;BME280;62146;53.232;-1.304;2022-12-18T07:25:21;100755.97;;;0.11;100.00
73817;BME280;62146;53.232;-1.304;2022-12-18T07:27:47;100753.22;;;0.12;100.00
73817;BME280;62146;53.232;-1.304;2022-12-18T07:30:14;100764.47;;;0.13;100.00
73817;BME280;62146;53.232;-1.304;2022-12-18T07:32:40;100754.84;;;0.13;100.00
73817;BME280;62146;53.232;-1.304;2022-12-18T07:35:07;100763.28;;;0.15;100.00
73817;BME280;62146;53.232;-1.304;2022-12-18T07:37:34;100758.44;;;0.12;100.00
73817;BME280;62146;53.232;-1.304;2022-12-18T07:40:00;100758.06;;;0.15;100.00
73817;BME280;62146;53.232;-1.304;2022-12-18T07:42:27;100745.22;;;0.14;100.00
73817;BME280;62146;53.232;-1.304;2022-12-18T07:44:57;100739.19;;;0.13;100.00
73817;BME280;62146;53.232;-1.304;2022-12-18T07:47:24;100732.84;;;0.16;100.00
73817;BME280;62146;53.232;-1.304;2022-12-18T07:49:52;100736.59;;;0.13;100.00
73817;BME280;62146;53.232;-1.304;2022-12-18T07:52:18;100736.59;;;0.13;100.00
73817;BME280;62146;53.232;-1.304;2022-12-18T07:54:51;100728.59;;;0.15;100.00
73817;BME280;62146;53.232;-1.304;2022-12-18T07:57:17;100713.78;;;0.15;100.00
73817;BME280;62146;53.232;-1.304;2022-12-18T08:00:04;100726.78;;;0.15;100.00
73817;BME280;62146;53.232;-1.304;2022-12-18T08:02:31;100726.78;;;0.15;100.00
73817;BME280;62146;53.232;-1.304;2022-12-18T08:04:58;100735.47;;;0.16;100.00
73817;BME280;62146;53.232;-1.304;2022-12-18T08:07:24;100738.06;;;0.16;100.00
73817;BME280;62146;53.232;-1.304;2022-12-18T08:09:51;100743.28;;;0.16;100.00
73817;BME280;62146;53.232;-1.304;2022-12-18T08:12:17;100743.09;;;0.17;100.00
73817;BME280;62146;53.232;-1.304;2022-12-18T08:14:44;100742.28;;;0.17;100.00
73817;BME280;62146;53.232;-1.304;2022-12-18T08:17:10;100745.88;;;0.16;100.00
73817;BME280;62146;53.232;-1.304;2022-12-18T08:19:37;100730.06;;;0.17;100.00
73817;BME280;62146;53.232;-1.304;2022-12-18T08:22:03;100725.84;;;0.16;100.00
73817;BME280;62146;53.232;-1.304;2022-12-18T08:24:30;100745.88;;;0.16;100.00
73817;BME280;62146;53.232;-1.304;2022-12-18T08:26:57;100751.72;;;0.18;100.00
73817;BME280;62146;53.232;-1.304;2022-12-18T08:29:43;100760.69;;;0.15;100.00
73817;BME280;62146;53.232;-1.304;2022-12-18T08:32:10;100762.34;;;0.16;100.00
73817;BME280;62146;53.232;-1.304;2022-12-18T08:34:36;100767.53;;;0.16;100.00
73817;BME280;62146;53.232;-1.304;2022-12-18T08:37:03;100754.66;;;0.15;100.00
73817;BME280;62146;53.232;-1.304;2022-12-18T08:39:30;100750.25;;;0.15;100.00
73817;BME280;62146;53.232;-1.304;2022-12-18T08:41:56;100744.22;;;0.15;100.00
73817;BME280;62146;53.232;-1.304;2022-12-18T08:44:41;100746.69;;;0.16;100.00
73817;BME280;62146;53.232;-1.304;2022-12-18T08:47:08;100746.69;;;0.16;100.00
73817;BME280;62146;53.232;-1.304;2022-12-18T08:49:34;100745.03;;;0.15;100.00
73817;BME280;62146;53.232;-1.304;2022-12-18T08:52:01;100742.28;;;0.17;100.00
73817;BME280;62146;53.232;-1.304;2022-12-18T08:54:29;100733.47;;;0.18;100.00
73817;BME280;62146;53.232;-1.304;2022-12-18T08:56:55;100730.88;;;0.18;100.00
73817;BME280;62146;53.232;-1.304;2022-12-18T08:59:22;100712.63;;;0.18;100.00
73817;BME280;62146;53.232;-1.304;2022-12-18T09:01:49;100697.00;;;0.18;100.00
73817;BME280;62146;53.232;-1.304;2022-12-18T09:04:16;100686.75;;;0.16;100.00
73817;BME280;62146;53.232;-1.304;2022-12-18T09:06:43;100675.34;;;0.17;100.00
73817;BME280;62146;53.232;-1.304;2022-12-18T09:09:10;100674.34;;;0.18;100.00
73817;BME280;62146;53.232;-1.304;2022-12-18T09:11:38;100682.16;;;0.18;100.00
73817;BME280;62146;53.232;-1.304;2022-12-18T09:14:04;100683.63;;;0.21;100.00
73817;BME280;62146;53.232;-1.304;2022-12-18T09:16:32;100679.41;;;0.20;100.00
73817;BME280;62146;53.232;-1.304;2022-12-18T09:19:03;100673.03;;;0.22;100.00
73817;BME280;62146;53.232;-1.304;2022-12-18T09:21:32;100665.56;;;0.19;100.00
73817;BME280;62146;53.232;-1.304;2022-12-18T09:24:03;100670.41;;;0.22;100.00
73817;BME280;62146;53.232;-1.304;2022-12-18T09:26:33;100659.03;;;0.23;100.00
73817;BME280;62146;53.232;-1.304;2022-12-18T09:29:00;100644.19;;;0.24;100.00
73817;BME280;62146;53.232;-1.304;2022-12-18T09:31:27;100642.06;;;0.27;100.00
73817;BME280;62146;53.232;-1.304;2022-12-18T09:33:55;100641.22;;;0.26;100.00
73817;BME280;62146;53.232;-1.304;2022-12-18T09:36:22;100629.84;;;0.27;100.00
73817;BME280;62146;53.232;-1.304;2022-12-18T09:38:48;100607.34;;;0.26;100.00
73817;BME280;62146;53.232;-1.304;2022-12-18T09:43:50;100610.78;;;0.27;100.00
73817;BME280;62146;53.232;-1.304;2022-12-18T09:46:32;100603.25;;;0.32;100.00
73817;BME280;62146;53.232;-1.304;2022-12-18T09:49:02;100590.03;;;0.33;100.00
73817;BME280;62146;53.232;-1.304;2022-12-18T09:51:36;100599.53;;;0.34;100.00
73817;BME280;62146;53.232;-1.304;2022-12-18T09:54:11;100596.72;;;0.36;100.00
73817;BME280;62146;53.232;-1.304;2022-12-18T09:56:41;100587.91;;;0.37;100.00
73817;BME280;62146;53.232;-1.304;2022-12-18T09:59:36;100620.81;;;0.38;100.00
73817;BME280;62146;53.232;-1.304;2022-12-18T10:02:21;100616.88;;;0.42;100.00
73817;BME280;62146;53.232;-1.304;2022-12-18T10:05:03;100624.72;;;0.42;100.00
73817;BME280;62146;53.232;-1.304;2022-12-18T10:13:33;100599.59;;;0.49;100.00
73817;BME280;62146;53.232;-1.304;2022-12-18T10:16:12;100596.00;;;0.50;100.00
73817;BME280;62146;53.232;-1.304;2022-12-18T10:24:35;100567.28;;;0.57;100.00
73817;BME280;62146;53.232;-1.304;2022-12-18T10:27:17;100550.44;;;0.60;100.00
73817;BME280;62146;53.232;-1.304;2022-12-18T10:29:45;100534.66;;;0.61;100.00
73817;BME280;62146;53.232;-1.304;2022-12-18T10:32:20;100520.63;;;0.62;100.00
73817;BME280;62146;53.232;-1.304;2022-12-18T10:34:49;100521.22;;;0.64;100.00
73817;BME280;62146;53.232;-1.304;2022-12-18T10:37:27;100520.28;;;0.65;100.00
73817;BME280;62146;53.232;-1.304;2022-12-18T10:40:13;100511.44;;;0.66;100.00
73817;BME280;62146;53.232;-1.304;2022-12-18T10:43:03;100500.84;;;0.68;100.00
73817;BME280;62146;53.232;-1.304;2022-12-18T10:45:30;100499.03;;;0.68;100.00
73817;BME280;62146;53.232;-1.304;2022-12-18T10:47:56;100499.69;;;0.70;100.00
73817;BME280;62146;53.232;-1.304;2022-12-18T10:50:30;100476.19;;;0.70;100.00
73817;BME280;62146;53.232;-1.304;2022-12-18T10:53:37;100474.69;;;0.76;100.00
73817;BME280;62146;53.232;-1.304;2022-12-18T10:56:05;100465.69;;;0.78;100.00
73817;BME280;62146;53.232;-1.304;2022-12-18T10:58:35;100458.06;;;0.77;100.00
73817;BME280;62146;53.232;-1.304;2022-12-18T11:06:11;100453.91;;;0.82;100.00
73817;BME280;62146;53.232;-1.304;2022-12-18T11:08:39;100449.16;;;0.85;100.00
73817;BME280;62146;53.232;-1.304;2022-12-18T11:11:19;100436.13;;;0.85;100.00
73817;BME280;62146;53.232;-1.304;2022-12-18T11:16:21;100441.44;;;0.92;100.00
73817;BME280;62146;53.232;-1.304;2022-12-18T11:18:48;100437.66;;;0.94;100.00
73817;BME280;62146;53.232;-1.304;2022-12-18T11:21:14;100438.31;;;0.96;100.00
73817;BME280;62146;53.232;-1.304;2022-12-18T11:23:52;100434.50;;;0.99;100.00
73817;BME280;62146;53.232;-1.304;2022-12-18T11:26:20;100428.13;;;1.01;100.00
73817;BME280;62146;53.232;-1.304;2022-12-18T11:28:52;100418.50;;;1.02;100.00
73817;BME280;62146;53.232;-1.304;2022-12-18T11:31:33;100418.16;;;1.05;100.00
73817;BME280;62146;53.232;-1.304;2022-12-18T11:36:50;100412.56;;;1.07;100.00
73817;BME280;62146;53.232;-1.304;2022-12-18T11:39:42;100407.97;;;1.09;100.00
73817;BME280;62146;53.232;-1.304;2022-12-18T11:45:43;100397.97;;;1.13;100.00
73817;BME280;62146;53.232;-1.304;2022-12-18T11:50:24;100383.41;;;1.18;100.00
73817;BME280;62146;53.232;-1.304;2022-12-18T11:52:51;100378.59;;;1.22;100.00
73817;BME280;62146;53.232;-1.304;2022-12-18T11:56:39;100383.47;;;1.25;100.00
73817;BME280;62146;53.232;-1.304;2022-12-18T12:09:55;100313.75;;;1.39;100.00
73817;BME280;62146;53.232;-1.304;2022-12-18T12:12:33;100295.28;;;1.41;100.00
73817;BME280;62146;53.232;-1.304;2022-12-18T12:24:02;100277.31;;;1.52;100.00
73817;BME280;62146;53.232;-1.304;2022-12-18T12:35:29;100266.41;;;1.63;100.00
73817;BME280;62146;53.232;-1.304;2022-12-18T12:38:08;100261.59;;;1.66;100.00
73817;BME280;62146;53.232;-1.304;2022-12-18T12:40:45;100249.78;;;1.70;100.00
73817;BME280;62146;53.232;-1.304;2022-12-18T12:43:44;100246.16;;;1.71;100.00
73817;BME280;62146;53.232;-1.304;2022-12-18T12:46:18;100234.53;;;1.74;100.00
73817;BME280;62146;53.232;-1.304;2022-12-18T12:48:56;100230.13;;;1.74;100.00
73817;BME280;62146;53.232;-1.304;2022-12-18T12:51:28;100232.63;;;1.61;100.00
73817;BME280;62146;53.232;-1.304;2022-12-18T12:53:59;100228.09;;;1.49;100.00
73817;BME280;62146;53.232;-1.304;2022-12-18T12:56:44;100231.69;;;1.48;100.00
73817;BME280;62146;53.232;-1.304;2022-12-18T12:59:25;100231.50;;;1.50;100.00
73817;BME280;62146;53.232;-1.304;2022-12-18T13:04:55;100220.50;;;1.54;100.00
73817;BME280;62146;53.232;-1.304;2022-12-18T13:07:29;100230.75;;;1.56;100.00
73817;BME280;62146;53.232;-1.304;2022-12-18T13:10:22;100219.75;;;1.60;100.00
73817;BME280;62146;53.232;-1.304;2022-12-18T13:13:12;100202.09;;;1.62;100.00
73817;BME280;62146;53.232;-1.304;2022-12-18T13:15:49;100188.22;;;1.61;100.00
73817;BME280;62146;53.232;-1.304;2022-12-18T13:18:29;100173.16;;;1.63;100.00
73817;BME280;62146;53.232;-1.304;2022-12-18T13:23:31;100168.34;;;1.67;100.00
73817;BME280;62146;53.232;-1.304;2022-12-18T13:33:43;100143.28;;;1.72;100.00
73817;BME280;62146;53.232;-1.304;2022-12-18T13:36:33;100134.44;;;1.73;100.00
73817;BME280;62146;53.232;-1.304;2022-12-18T13:41:48;100133.06;;;1.77;100.00
73817;BME280;62146;53.232;-1.304;2022-12-18T13:44:41;100126.84;;;1.78;100.00
73817;BME280;62146;53.232;-1.304;2022-12-18T13:47:27;100127.47;;;1.80;100.00
73817;BME280;62146;53.232;-1.304;2022-12-18T13:49:57;100125.47;;;1.82;100.00
73817;BME280;62146;53.232;-1.304;2022-12-18T13:52:28;100115.63;;;1.84;100.00
73817;BME280;62146;53.232;-1.304;2022-12-18T13:54:56;100099.16;;;1.84;100.00
73817;BME280;62146;53.232;-1.304;2022-12-18T13:57:33;100087.47;;;1.86;100.00
73817;BME280;62146;53.232;-1.304;2022-12-18T14:02:51;100078.66;;;1.87;100.00
73817;BME280;62146;53.232;-1.304;2022-12-18T14:05:44;100065.41;;;1.88;100.00
73817;BME280;62146;53.232;-1.304;2022-12-18T14:08:14;100068.81;;;1.89;100.00
73817;BME280;62146;53.232;-1.304;2022-12-18T14:10:45;100057.34;;;1.90;100.00
73817;BME280;62146;53.232;-1.304;2022-12-18T14:15:50;100044.09;;;1.91;100.00
73817;BME280;62146;53.232;-1.304;2022-12-18T14:20:49;100047.16;;;1.95;100.00
73817;BME280;62146;53.232;-1.304;2022-12-18T14:23:40;100039.69;;;1.92;100.00
73817;BME280;62146;53.232;-1.304;2022-12-18T14:28:47;100036.69;;;1.95;100.00
73817;BME280;62146;53.232;-1.304;2022-12-18T14:31:22;100032.25;;;1.95;100.00
73817;BME280;62146;53.232;-1.304;2022-12-18T14:33:50;100036.47;;;1.96;100.00
73817;BME280;62146;53.232;-1.304;2022-12-18T14:36:20;100020.38;;;1.93;100.00
73817;BME280;62146;53.232;-1.304;2022-12-18T14:38:55;100009.53;;;1.96;100.00
73817;BME280;62146;53.232;-1.304;2022-12-18T14:41:23;100016.59;;;1.95;100.00